Time;durP1;ratioP1;P1;durP2;ratioP2;P2;SDS_P1;SDS_P2;PMS_P1;PMS_P2;Temp;Humidity;BMP_temperature;BMP_pressure;BME280_temperature;BME280_humidity;BME280_pressure;Samples;Min_cycle;Max_cycle;Signal;HPM_P1;HPM_P2
2021/12/03 00:00:47;;;;;;;;;10.75;9.50;;;;;14.76;47.08;97122.78;4900677;28;105492;-84
2021/12/03 00:03:15;;;;;;;;;9.25;7.00;;;;;14.74;47.09;97123.03;4890874;28;103242;-84
2021/12/03 00:05:42;;;;;;;;;7.25;7.00;;;;;14.72;47.13;97138.78;4891590;28;102846;-85
2021/12/03 00:08:09;;;;;;;;;6.75;6.25;;;;;14.74;46.76;97138.53;4900931;28;104278;-83
2021/12/03 00:10:37;;;;;;;;;9.25;9.25;;;;;14.75;46.82;97148.34;4900645;28;102596;-84
2021/12/03 00:13:06;;;;;;;;;8.25;7.50;;;;;14.73;46.85;97142.34;4902346;28;102726;-84
2021/12/03 00:15:34;;;;;;;;;9.25;7.00;;;;;14.74;47.27;97154.88;4904139;28;102540;-84
2021/12/03 00:18:01;;;;;;;;;9.75;9.50;;;;;14.71;47.16;97158.94;4891014;28;104424;-84
2021/12/03 00:20:34;;;;;;;;;10.75;8.00;;;;;14.71;46.96;97160.84;4907000;28;103379;-84
2021/12/03 00:23:02;;;;;;;;;11.00;8.00;;;;;14.70;47.08;97167.34;4915519;28;102626;-84
2021/12/03 00:25:29;;;;;;;;;6.50;5.75;;;;;14.70;46.67;97170.06;4902219;28;105378;-84
2021/12/03 00:27:56;;;;;;;;;8.75;7.00;;;;;14.70;46.88;97172.81;4894286;28;102899;-84
2021/12/03 00:30:23;;;;;;;;;9.25;7.25;;;;;14.68;47.04;97175.78;4907473;28;102638;-85
2021/12/03 00:32:50;;;;;;;;;5.75;5.75;;;;;14.67;46.76;97176.88;4906149;28;102657;-84
2021/12/03 00:35:17;;;;;;;;;7.75;7.00;;;;;14.68;47.14;97174.94;4896198;28;103536;-84
2021/12/03 00:37:46;;;;;;;;;6.50;6.50;;;;;14.66;46.52;97177.13;4896412;28;103786;-84
2021/12/03 00:40:16;;;;;;;;;8.50;6.50;;;;;14.65;46.81;97187.19;4909267;28;102538;-85
2021/12/03 00:42:43;;;;;;;;;6.75;6.25;;;;;14.63;46.67;97188.53;4894106;28;102647;-84
2021/12/03 00:45:11;;;;;;;;;6.50;6.00;;;;;14.64;46.56;97192.88;4920140;28;102781;-85
2021/12/03 00:47:39;;;;;;;;;8.75;7.75;;;;;14.63;46.86;97194.00;4912118;28;104231;-84
2021/12/03 00:50:07;;;;;;;;;6.25;5.50;;;;;14.63;46.82;97204.88;4907666;28;102200;-84
2021/12/03 00:52:34;;;;;;;;;8.25;8.00;;;;;14.62;46.91;97203.22;4913745;28;103891;-84
2021/12/03 00:55:02;;;;;;;;;7.50;6.00;;;;;14.63;46.60;97208.38;4894054;28;102591;-84
2021/12/03 00:57:29;;;;;;;;;5.00;5.00;;;;;14.62;46.25;97219.53;4919773;28;104187;-84
2021/12/03 00:59:56;;;;;;;;;6.75;6.25;;;;;14.62;46.83;97211.38;4919311;28;102960;-84
2021/12/03 01:02:23;;;;;;;;;6.25;5.75;;;;;14.60;46.48;97222.50;4883237;28;102653;-84
2021/12/03 01:04:51;;;;;;;;;6.00;5.25;;;;;14.61;46.83;97228.78;4874959;28;104031;-84
2021/12/03 01:07:18;;;;;;;;;6.00;5.00;;;;;14.59;46.60;97231.75;4903770;28;104032;-84
2021/12/03 01:09:45;;;;;;;;;6.00;6.00;;;;;14.60;46.59;97235.28;4895053;28;104186;-84
2021/12/03 01:12:12;;;;;;;;;8.75;6.00;;;;;14.59;46.98;97228.22;4907512;28;102994;-84
2021/12/03 01:14:40;;;;;;;;;11.00;6.50;;;;;14.58;46.48;97230.13;4903941;28;104170;-83
2021/12/03 01:17:07;;;;;;;;;6.75;6.00;;;;;14.57;46.69;97235.81;4921238;28;104302;-84
2021/12/03 01:19:34;;;;;;;;;7.00;7.00;;;;;14.56;46.81;97236.88;4907452;28;103011;-84
2021/12/03 01:22:02;;;;;;;;;7.00;6.25;;;;;14.55;46.54;97235.25;4919253;28;102482;-85
2021/12/03 01:24:29;;;;;;;;;6.00;5.50;;;;;14.54;46.64;97231.72;4903877;28;109998;-84
2021/12/03 01:26:56;;;;;;;;;6.50;6.25;;;;;14.54;46.82;97239.06;4910382;28;104048;-84
2021/12/03 01:29:24;;;;;;;;;5.00;4.75;;;;;14.54;46.27;97239.06;4917247;28;102591;-84
2021/12/03 01:31:53;;;;;;;;;5.00;5.00;;;;;14.51;46.68;97240.38;4917524;28;103691;-85
2021/12/03 01:34:21;;;;;;;;;5.25;5.25;;;;;14.51;47.03;97234.94;4904824;28;102662;-84
2021/12/03 01:36:48;;;;;;;;;5.00;5.00;;;;;14.52;46.91;97235.78;4902409;28;104249;-84
2021/12/03 01:39:15;;;;;;;;;4.50;4.25;;;;;14.53;46.59;97242.88;4888692;28;102740;-85
2021/12/03 01:41:43;;;;;;;;;7.50;6.00;;;;;14.51;46.70;97236.84;4911181;28;102169;-84
2021/12/03 01:44:10;;;;;;;;;6.75;4.75;;;;;14.50;46.76;97238.75;4909195;28;105250;-85
2021/12/03 01:46:37;;;;;;;;;6.00;5.00;;;;;14.51;46.94;97239.56;4908024;28;108988;-85
2021/12/03 01:49:05;;;;;;;;;5.00;4.25;;;;;14.50;46.86;97243.38;4900181;28;102641;-85
2021/12/03 01:51:32;;;;;;;;;6.00;5.75;;;;;14.49;46.40;97239.03;4887694;28;102210;-85
2021/12/03 01:53:59;;;;;;;;;6.00;5.00;;;;;14.48;46.17;97246.34;4885868;28;102443;-84
2021/12/03 01:56:27;;;;;;;;;6.00;5.25;;;;;14.47;46.59;97250.16;4906605;28;104017;-84
2021/12/03 01:58:54;;;;;;;;;4.00;4.00;;;;;14.47;46.12;97260.22;4920333;28;104023;-85
2021/12/03 02:01:23;;;;;;;;;4.25;4.00;;;;;14.45;46.39;97257.75;4883535;28;103552;-85
2021/12/03 02:03:53;;;;;;;;;3.25;3.25;;;;;14.44;46.62;97264.28;4849301;28;105611;-84
2021/12/03 02:06:20;;;;;;;;;7.00;5.25;;;;;14.43;46.55;97275.41;4864570;28;104503;-85
2021/12/03 02:08:47;;;;;;;;;5.00;5.00;;;;;14.42;46.20;97280.03;4846353;28;108503;-84
2021/12/03 02:11:15;;;;;;;;;6.00;6.00;;;;;14.40;46.39;97284.09;4852993;28;102552;-84
2021/12/03 02:13:42;;;;;;;;;4.00;4.00;;;;;14.40;46.57;97293.06;4894361;28;104970;-84
2021/12/03 02:16:10;;;;;;;;;3.00;3.00;;;;;14.39;46.57;97293.31;4889744;28;104331;-85
2021/12/03 02:18:37;;;;;;;;;3.00;3.00;;;;;14.40;46.25;97300.41;4891130;28;102130;-85
2021/12/03 02:21:05;;;;;;;;;5.75;5.50;;;;;14.40;46.10;97309.38;4889630;28;102693;-85
2021/12/03 02:23:32;;;;;;;;;4.00;4.00;;;;;14.38;46.18;97313.41;4891149;28;105513;-85
2021/12/03 02:26:00;;;;;;;;;5.75;5.00;;;;;14.38;46.24;97321.59;4881678;28;104141;-84
2021/12/03 02:28:28;;;;;;;;;5.25;5.25;;;;;14.38;46.74;97327.03;4886253;28;103240;-84
2021/12/03 02:30:56;;;;;;;;;5.00;5.00;;;;;14.36;46.49;97337.34;4884608;28;102499;-85
2021/12/03 02:33:23;;;;;;;;;5.00;3.50;;;;;14.36;46.14;97340.06;4882766;28;105193;-84
2021/12/03 02:35:50;;;;;;;;;5.75;5.75;;;;;14.35;46.34;97346.53;4895666;28;104046;-84
2021/12/03 02:38:19;;;;;;;;;5.00;4.00;;;;;14.35;46.48;97343.81;4897726;28;102582;-84
2021/12/03 02:40:47;;;;;;;;;4.75;4.00;;;;;14.32;46.32;97348.69;4885202;28;102485;-84
2021/12/03 02:43:14;;;;;;;;;4.50;4.50;;;;;14.32;46.80;97360.66;4901632;28;102356;-84
2021/12/03 02:45:41;;;;;;;;;3.75;3.50;;;;;14.30;47.05;97358.19;4892927;28;104138;-85
2021/12/03 02:48:09;;;;;;;;;5.00;4.25;;;;;14.30;46.19;97361.72;4895544;28;102279;-85
2021/12/03 02:50:36;;;;;;;;;5.25;4.25;;;;;14.27;46.28;97354.06;4894241;28;102483;-85
2021/12/03 02:53:03;;;;;;;;;5.00;4.00;;;;;14.26;46.45;97355.16;4904697;28;102631;-85
2021/12/03 02:55:30;;;;;;;;;4.75;4.75;;;;;14.26;46.48;97363.31;4895052;28;104095;-85
2021/12/03 02:57:57;;;;;;;;;3.75;3.00;;;;;14.25;46.57;97369.00;4898042;28;103708;-84
2021/12/03 03:00:25;;;;;;;;;4.75;4.00;;;;;14.25;46.86;97369.81;4893371;28;102817;-84
2021/12/03 03:02:53;;;;;;;;;4.00;3.00;;;;;14.24;46.57;97370.06;4883224;28;102685;-85
2021/12/03 03:05:21;;;;;;;;;5.00;4.00;;;;;14.25;46.74;97374.44;4891521;28;104100;-84
2021/12/03 03:07:48;;;;;;;;;3.25;3.00;;;;;14.25;46.16;97367.09;4874516;28;103529;-85
2021/12/03 03:10:18;;;;;;;;;3.00;3.00;;;;;14.23;46.70;97371.97;4885911;28;102473;-84
2021/12/03 03:12:46;;;;;;;;;4.00;3.00;;;;;14.22;46.82;97381.22;4896947;28;102787;-84
2021/12/03 03:15:14;;;;;;;;;3.00;2.75;;;;;14.23;46.32;97374.69;4909642;28;105258;-85
2021/12/03 03:17:41;;;;;;;;;3.25;3.00;;;;;14.24;46.20;97376.34;4891897;28;102378;-84
2021/12/03 03:20:09;;;;;;;;;3.00;3.00;;;;;14.25;46.32;97382.59;4916123;28;103977;-85
2021/12/03 03:22:37;;;;;;;;;5.00;4.00;;;;;14.25;46.25;97386.13;4921307;28;103408;-85
2021/12/03 03:25:05;;;;;;;;;4.00;3.25;;;;;14.25;46.40;97397.00;4888449;28;104149;-85
2021/12/03 03:27:33;;;;;;;;;2.00;2.00;;;;;14.27;46.01;97394.84;4904757;28;102588;-85
2021/12/03 03:30:00;;;;;;;;;3.00;3.00;;;;;14.27;46.46;97391.34;4910260;28;104020;-84
2021/12/03 03:32:27;;;;;;;;;3.75;3.75;;;;;14.27;46.28;97400.28;4913527;28;103455;-85
2021/12/03 03:34:54;;;;;;;;;3.00;3.00;;;;;14.31;46.38;97400.63;4899456;28;104032;-85
2021/12/03 03:37:21;;;;;;;;;4.75;3.50;;;;;14.31;45.96;97400.63;4906354;28;103502;-84
2021/12/03 03:39:49;;;;;;;;;3.00;3.00;;;;;14.32;46.33;97418.56;4914685;28;102479;-85
2021/12/03 03:42:16;;;;;;;;;4.25;3.00;;;;;14.32;46.54;97415.03;4903797;28;102708;-84
2021/12/03 03:44:43;;;;;;;;;4.00;3.25;;;;;14.32;45.87;97413.94;4901183;28;104096;-85
2021/12/03 03:47:10;;;;;;;;;4.25;3.00;;;;;14.35;46.24;97417.25;4881302;28;102107;-85
2021/12/03 03:49:38;;;;;;;;;3.00;2.00;;;;;14.33;46.23;97414.78;4886165;28;102568;-85
2021/12/03 03:52:05;;;;;;;;;3.00;3.00;;;;;14.32;46.25;97416.66;4904810;28;103845;-85
2021/12/03 03:54:32;;;;;;;;;3.00;2.00;;;;;14.33;45.86;97436.53;4904201;28;104397;-85
2021/12/03 03:57:00;;;;;;;;;3.00;3.00;;;;;14.34;45.71;97435.47;4895961;28;102882;-84
2021/12/03 03:59:27;;;;;;;;;4.00;3.00;;;;;14.34;46.28;97429.19;4894091;28;102454;-84
2021/12/03 04:01:54;;;;;;;;;3.25;3.00;;;;;14.34;45.72;97438.19;4892973;28;110761;-85
2021/12/03 04:04:21;;;;;;;;;3.75;3.75;;;;;14.34;45.90;97440.91;4893897;28;104013;-85
2021/12/03 04:06:50;;;;;;;;;3.50;2.50;;;;;14.32;46.26;97431.34;4905380;28;102642;-85
2021/12/03 04:09:17;;;;;;;;;2.75;2.25;;;;;14.32;45.83;97443.84;4890702;28;102575;-85
2021/12/03 04:11:44;;;;;;;;;2.00;2.00;;;;;14.32;45.78;97443.84;4897512;28;102619;-85
2021/12/03 04:14:11;;;;;;;;;3.75;2.75;;;;;14.32;46.20;97438.41;4917501;28;110091;-85
2021/12/03 04:16:38;;;;;;;;;4.00;4.00;;;;;14.32;45.70;97447.69;4902325;28;102901;-85
2021/12/03 04:19:06;;;;;;;;;3.00;2.00;;;;;14.32;45.86;97454.72;4908963;28;102177;-85
2021/12/03 04:21:33;;;;;;;;;3.25;3.00;;;;;14.32;46.03;97453.91;4900256;28;102677;-84
2021/12/03 04:24:00;;;;;;;;;4.00;3.00;;;;;14.32;46.07;97458.56;4913590;28;104067;-85
2021/12/03 04:26:27;;;;;;;;;2.25;2.25;;;;;14.30;46.12;97461.50;4906491;28;102468;-85
2021/12/03 04:28:54;;;;;;;;;3.00;3.00;;;;;14.31;46.12;97468.59;4904328;28;102691;-84
2021/12/03 04:31:21;;;;;;;;;3.25;2.00;;;;;14.32;45.73;97475.66;4899312;28;103168;-84
2021/12/03 04:33:48;;;;;;;;;3.25;2.00;;;;;14.33;45.86;97477.31;4904723;28;104129;-85
2021/12/03 04:36:15;;;;;;;;;3.00;2.00;;;;;14.32;45.63;97480.31;4922813;28;105979;-85
2021/12/03 04:38:42;;;;;;;;;2.00;2.00;;;;;14.32;46.06;97496.63;4904946;28;103731;-85
2021/12/03 04:41:09;;;;;;;;;4.50;4.00;;;;;14.31;45.86;97495.78;4901927;28;103427;-85
2021/12/03 04:43:36;;;;;;;;;2.00;2.00;;;;;14.31;46.46;97501.22;4913978;28;104425;-85
2021/12/03 04:46:03;;;;;;;;;2.75;2.75;;;;;14.29;46.17;97506.09;4909925;28;104337;-85
2021/12/03 04:48:30;;;;;;;;;1.50;1.50;;;;;14.29;46.23;97498.75;4883435;28;105198;-85
2021/12/03 04:50:57;;;;;;;;;2.00;2.00;;;;;14.29;45.89;97508.81;4920348;28;105360;-85
2021/12/03 04:53:24;;;;;;;;;2.00;2.00;;;;;14.27;46.11;97510.97;4886357;28;104488;-84
2021/12/03 04:55:53;;;;;;;;;2.75;2.50;;;;;14.26;46.32;97502.00;4892278;28;102857;-84
2021/12/03 04:58:20;;;;;;;;;2.00;2.00;;;;;14.25;46.08;97516.66;4905710;28;102624;-85
2021/12/03 05:00:55;;;;;;;;;2.00;2.00;;;;;14.24;46.15;97515.00;4912900;28;104009;-85
2021/12/03 05:03:24;;;;;;;;;1.50;1.50;;;;;14.25;46.11;97523.97;4897281;28;104088;-85
2021/12/03 05:05:56;;;;;;;;;4.00;3.00;;;;;14.24;46.24;97527.75;4910857;28;102650;-85
2021/12/03 05:08:24;;;;;;;;;3.75;2.25;;;;;14.22;45.71;97529.94;4898099;28;104858;-84
2021/12/03 05:10:53;;;;;;;;;2.00;2.00;;;;;14.21;45.92;97534.53;4904395;28;102464;-84
2021/12/03 05:13:23;;;;;;;;;2.00;2.00;;;;;14.23;45.78;97540.53;4894137;28;104114;-84
2021/12/03 05:15:50;;;;;;;;;2.00;2.00;;;;;14.20;45.26;97521.19;4920638;28;102529;-85
2021/12/03 05:18:19;;;;;;;;;3.00;2.50;;;;;14.21;46.03;97537.25;4910367;28;102409;-84
2021/12/03 05:20:47;;;;;;;;;3.50;2.00;;;;;14.20;46.57;97527.44;4905288;28;104456;-83
2021/12/03 05:23:14;;;;;;;;;2.00;2.00;;;;;14.19;45.89;97533.94;4911873;28;104219;-85
2021/12/03 05:25:42;;;;;;;;;1.00;0.25;;;;;14.20;45.83;97537.50;4897872;28;102347;-84
2021/12/03 05:28:09;;;;;;;;;2.00;2.00;;;;;14.19;46.22;97550.25;4904685;28;102739;-85
2021/12/03 05:30:36;;;;;;;;;3.00;3.00;;;;;14.18;46.09;97548.63;4919797;28;105516;-84
2021/12/03 05:33:04;;;;;;;;;2.00;2.00;;;;;14.18;45.62;97555.97;4895133;28;104114;-85
2021/12/03 05:35:31;;;;;;;;;2.25;1.00;;;;;14.16;45.90;97564.38;4903193;28;102218;-85
2021/12/03 05:37:58;;;;;;;;;2.00;2.00;;;;;14.17;45.52;97567.91;4910592;28;102551;-85
2021/12/03 05:40:26;;;;;;;;;1.00;1.00;;;;;14.15;46.30;97570.88;4913068;28;103581;-84
2021/12/03 05:42:53;;;;;;;;;3.25;2.75;;;;;14.15;45.70;97583.63;4892549;28;104313;-84
2021/12/03 05:45:23;;;;;;;;;2.00;2.00;;;;;14.14;45.71;97576.53;4930062;28;102895;-84
2021/12/03 05:47:51;;;;;;;;;2.00;1.50;;;;;14.12;46.32;97576.81;4925219;28;102457;-84
2021/12/03 05:50:18;;;;;;;;;3.75;2.00;;;;;14.11;45.65;97579.78;4901693;28;102546;-84
2021/12/03 05:52:46;;;;;;;;;3.50;2.00;;;;;14.12;46.16;97586.88;4901008;28;104234;-85
2021/12/03 05:55:13;;;;;;;;;2.00;2.00;;;;;14.10;46.16;97587.09;4923117;28;102340;-85
2021/12/03 05:57:40;;;;;;;;;2.00;2.00;;;;;14.10;45.62;97589.81;4915632;28;102582;-85
2021/12/03 06:00:11;;;;;;;;;1.50;1.50;;;;;14.08;45.84;97589.25;4914301;28;102637;-84
2021/12/03 06:02:38;;;;;;;;;3.00;2.00;;;;;14.09;46.53;97595.53;4902970;28;104978;-85
2021/12/03 06:05:06;;;;;;;;;2.00;1.25;;;;;14.08;45.56;97613.72;4913836;28;102214;-85
2021/12/03 06:07:33;;;;;;;;;3.00;2.00;;;;;14.06;45.72;97604.16;4919177;28;103982;-85
2021/12/03 06:10:00;;;;;;;;;1.50;1.50;;;;;14.07;46.13;97617.50;4905582;28;102541;-85
2021/12/03 06:12:27;;;;;;;;;2.00;2.00;;;;;14.07;46.03;97631.09;4900108;28;104662;-85
2021/12/03 06:14:54;;;;;;;;;3.00;1.75;;;;;14.06;46.05;97625.91;4898111;28;102424;-85
2021/12/03 06:17:21;;;;;;;;;1.00;1.00;;;;;14.06;46.15;97637.59;4916272;28;102619;-84
2021/12/03 06:19:49;;;;;;;;;3.00;2.00;;;;;14.05;46.08;97632.44;4913310;28;102898;-84
2021/12/03 06:22:16;;;;;;;;;2.00;2.00;;;;;14.04;46.06;97634.31;4913845;28;104309;-85
2021/12/03 06:24:43;;;;;;;;;3.50;2.00;;;;;14.05;45.33;97637.88;4914241;28;102673;-85
2021/12/03 06:27:10;;;;;;;;;2.00;2.00;;;;;14.04;46.29;97645.19;4907456;28;103163;-85
2021/12/03 06:29:37;;;;;;;;;1.75;1.75;;;;;14.03;45.54;97645.44;4914078;28;104615;-84
2021/12/03 06:32:09;;;;;;;;;3.50;3.00;;;;;14.05;45.45;97659.63;4934920;28;104067;-85
2021/12/03 06:34:37;;;;;;;;;2.00;2.00;;;;;14.05;46.02;97667.75;4915277;28;103682;-85
2021/12/03 06:37:04;;;;;;;;;2.00;2.00;;;;;14.02;46.11;97669.06;4907612;28;102478;-85
2021/12/03 06:39:31;;;;;;;;;2.00;2.00;;;;;14.02;45.89;97681.81;4900596;28;102662;-84
2021/12/03 06:41:58;;;;;;;;;3.25;2.25;;;;;14.02;46.13;97677.22;4895627;28;104115;-84
2021/12/03 06:44:25;;;;;;;;;1.50;1.50;;;;;14.02;45.99;97679.94;4910272;28;102711;-85
2021/12/03 06:46:53;;;;;;;;;2.00;1.50;;;;;14.03;46.62;97686.19;4912533;28;102806;-84
2021/12/03 06:49:21;;;;;;;;;2.00;2.00;;;;;14.03;46.46;97689.75;4918252;28;103659;-85
2021/12/03 06:51:50;;;;;;;;;2.25;2.00;;;;;14.03;45.80;97688.91;4919081;28;104227;-83
2021/12/03 06:54:26;;;;;;;;;2.00;2.00;;;;;14.02;46.29;97692.69;4924144;28;103647;-85
2021/12/03 06:56:53;;;;;;;;;1.25;1.00;;;;;14.02;46.30;97700.84;4916758;28;103172;-85
2021/12/03 06:59:20;;;;;;;;;3.00;2.00;;;;;14.01;46.12;97697.31;4911521;28;102178;-84
2021/12/03 07:01:48;;;;;;;;;2.50;2.00;;;;;14.00;45.77;97712.00;4917965;28;104209;-85
2021/12/03 07:04:15;;;;;;;;;1.00;1.00;;;;;14.00;46.16;97706.56;4891162;28;102451;-85
2021/12/03 07:06:42;;;;;;;;;3.75;3.75;;;;;13.98;45.95;97724.97;4886234;28;102672;-85
2021/12/03 07:09:10;;;;;;;;;4.00;3.25;;;;;13.98;45.90;97716.84;4896491;28;102742;-85
2021/12/03 07:11:37;;;;;;;;;2.50;1.75;;;;;13.97;45.94;97717.91;4898553;28;104259;-85
2021/12/03 07:14:04;;;;;;;;;2.00;2.00;;;;;13.97;46.27;97727.94;4901578;28;102409;-85
2021/12/03 07:16:31;;;;;;;;;2.50;2.50;;;;;13.96;45.54;97734.47;4889393;28;103052;-85
2021/12/03 07:18:58;;;;;;;;;0.00;0.00;;;;;13.96;45.54;97731.75;4919214;28;102588;-85
2021/12/03 07:21:25;;;;;;;;;3.50;2.50;;;;;13.95;46.21;97738.25;4899748;28;104008;-84
2021/12/03 07:23:53;;;;;;;;;3.25;2.75;;;;;13.95;45.73;97744.50;4896609;28;102856;-85
2021/12/03 07:26:21;;;;;;;;;3.50;3.50;;;;;13.95;45.64;97751.84;4908785;28;102756;-84
2021/12/03 07:28:48;;;;;;;;;2.00;2.00;;;;;13.95;45.52;97754.56;4915371;28;105701;-85
2021/12/03 07:31:15;;;;;;;;;1.00;1.00;;;;;13.93;45.60;97760.22;4913363;28;109018;-85
2021/12/03 07:33:42;;;;;;;;;1.75;1.75;;;;;13.95;45.73;97766.25;4924444;28;102978;-85
2021/12/03 07:36:09;;;;;;;;;3.00;2.25;;;;;13.94;45.68;97772.75;4913607;28;103433;-86
2021/12/03 07:38:37;;;;;;;;;2.75;2.50;;;;;13.94;46.00;97777.34;4914318;28;102577;-86
2021/12/03 07:41:04;;;;;;;;;2.00;2.00;;;;;13.94;45.26;97780.91;4907149;28;110988;-85
2021/12/03 07:43:31;;;;;;;;;3.00;2.00;;;;;13.92;46.17;97780.31;4895213;28;102393;-86
2021/12/03 07:45:58;;;;;;;;;1.00;1.00;;;;;13.93;45.20;97787.41;4910917;28;102668;-85
2021/12/03 07:48:25;;;;;;;;;2.00;2.00;;;;;13.90;46.49;97782.47;4892852;28;102395;-85
2021/12/03 07:50:53;;;;;;;;;4.00;2.75;;;;;13.92;45.98;97787.63;4903369;28;104124;-85
2021/12/03 07:53:21;;;;;;;;;2.00;2.00;;;;;13.91;45.85;97791.44;4904684;28;102580;-85
2021/12/03 07:55:49;;;;;;;;;2.00;2.00;;;;;13.91;45.77;97788.72;4924939;28;102544;-85
2021/12/03 07:58:17;;;;;;;;;1.00;1.00;;;;;13.91;45.74;97792.25;4910988;28;102471;-85
2021/12/03 08:00:45;;;;;;;;;3.25;2.75;;;;;13.90;45.79;97798.75;4889856;28;108955;-86
2021/12/03 08:03:16;;;;;;;;;2.50;2.00;;;;;13.91;45.81;97805.03;4892589;28;102500;-85
2021/12/03 08:05:43;;;;;;;;;2.00;2.00;;;;;13.93;45.91;97808.31;4891699;28;102620;-85
2021/12/03 08:08:10;;;;;;;;;2.00;1.00;;;;;13.94;45.49;97815.41;4914144;28;102817;-86
2021/12/03 08:10:37;;;;;;;;;3.00;2.00;;;;;13.96;45.39;97816.78;4926289;28;103862;-85
2021/12/03 08:13:04;;;;;;;;;2.00;2.00;;;;;13.99;45.26;97820.94;4913922;28;102401;-85
2021/12/03 08:15:36;;;;;;;;;3.75;3.00;;;;;14.01;46.01;97810.63;4899566;28;102495;-85
2021/12/03 08:18:05;;;;;;;;;2.00;1.00;;;;;14.05;45.92;97814.56;4926237;28;102685;-85
2021/12/03 08:20:32;;;;;;;;;2.00;2.00;;;;;14.08;45.96;97816.78;4915502;28;103999;-85
2021/12/03 08:22:59;;;;;;;;;2.25;2.25;;;;;14.10;45.95;97829.03;4910806;28;102538;-85
2021/12/03 08:25:27;;;;;;;;;2.25;1.75;;;;;14.11;45.63;97827.97;4913230;28;102732;-84
2021/12/03 08:27:54;;;;;;;;;2.75;2.00;;;;;14.13;45.60;97833.19;4884653;28;102870;-85
2021/12/03 08:30:22;;;;;;;;;1.50;1.25;;;;;14.15;45.79;97837.31;4902462;28;105585;-85
2021/12/03 08:32:49;;;;;;;;;3.00;2.00;;;;;14.18;45.21;97844.97;4906651;28;102414;-86
2021/12/03 08:35:16;;;;;;;;;3.00;2.50;;;;;14.20;45.45;97848.28;4915059;28;102571;-85
2021/12/03 08:37:46;;;;;;;;;1.50;1.00;;;;;14.24;45.25;97857.59;4888630;28;102617;-85
2021/12/03 08:40:13;;;;;;;;;2.00;2.00;;;;;14.26;45.67;97858.19;4909484;28;103871;-86
2021/12/03 08:42:40;;;;;;;;;2.00;2.00;;;;;14.27;45.69;97853.59;4910706;28;104877;-85
2021/12/03 08:45:08;;;;;;;;;2.00;2.00;;;;;14.29;45.14;97863.13;4910509;28;102597;-86
2021/12/03 08:47:36;;;;;;;;;3.75;2.00;;;;;14.31;45.46;97860.19;4915320;28;102631;-85
2021/12/03 08:50:07;;;;;;;;;2.25;2.00;;;;;14.34;45.47;97864.31;4919541;28;104104;-85
2021/12/03 08:53:02;;;;;;;;;3.00;2.00;;;;;14.36;45.62;97870.38;4883578;28;102435;-85
2021/12/03 08:55:33;;;;;;;;;2.00;2.00;;;;;14.38;45.05;97877.19;4911548;28;102166;-86
2021/12/03 08:58:00;;;;;;;;;2.00;1.75;;;;;14.40;44.89;97876.97;4911170;28;105260;-86
2021/12/03 09:00:29;;;;;;;;;2.50;2.00;;;;;14.43;44.97;97881.91;4914235;28;104053;-85
2021/12/03 09:02:57;;;;;;;;;2.75;2.00;;;;;14.43;45.16;97884.63;4905113;28;102405;-85
2021/12/03 09:05:30;;;;;;;;;3.00;2.00;;;;;14.45;45.05;97871.63;4923586;28;102396;-85
2021/12/03 09:07:57;;;;;;;;;3.00;3.00;;;;;14.47;44.72;97880.34;4891733;28;103378;-85
2021/12/03 09:10:36;;;;;;;;;1.50;1.00;;;;;14.48;45.40;97882.00;4892672;28;110261;-85
2021/12/03 09:13:04;;;;;;;;;2.00;2.00;;;;;14.50;44.92;97890.78;4900535;28;102670;-86
2021/12/03 09:16:08;;;;;;;;;2.75;2.00;;;;;14.50;44.64;97885.34;4918164;28;102692;-85
2021/12/03 09:18:40;;;;;;;;;1.00;1.00;;;;;14.50;44.79;97898.94;4892616;28;102267;-85
2021/12/03 09:21:27;;;;;;;;;2.00;2.00;;;;;14.49;44.68;97889.13;4908211;28;109180;-85
2021/12/03 09:24:13;;;;;;;;;3.50;3.00;;;;;14.49;44.51;97892.66;4904801;28;102368;-85
2021/12/03 09:26:42;;;;;;;;;3.25;3.25;;;;;14.49;45.01;97897.28;4923690;28;103513;-85
2021/12/03 09:29:11;;;;;;;;;2.00;2.00;;;;;14.49;44.99;97891.84;4910561;28;103625;-86
2021/12/03 09:31:42;;;;;;;;;3.00;3.00;;;;;14.50;44.90;97896.22;4896130;28;104710;-85
2021/12/03 09:34:10;;;;;;;;;3.50;3.00;;;;;14.50;44.20;97902.44;4902416;28;106188;-86
2021/12/03 09:36:40;;;;;;;;;2.00;2.00;;;;;14.52;44.58;97888.63;4920840;28;102257;-85
2021/12/03 09:39:09;;;;;;;;;2.75;2.25;;;;;14.52;44.50;97878.56;4902456;28;102610;-85
2021/12/03 09:41:36;;;;;;;;;3.50;3.00;;;;;14.52;44.42;97867.69;4933038;28;104231;-85
2021/12/03 09:44:04;;;;;;;;;3.75;3.00;;;;;14.54;44.69;97875.59;4902659;28;102358;-85
2021/12/03 09:46:31;;;;;;;;;4.00;3.00;;;;;14.55;44.69;97866.34;4876052;28;102173;-86
2021/12/03 09:56:43;;;;;;;;;2.00;1.75;;;;;14.58;44.45;97863.16;4911626;28;102971;-85
2021/12/03 10:12:42;;;;;;;;;3.75;2.50;;;;;14.58;44.45;97874.06;4914008;28;108715;-85
2021/12/03 10:17:54;;;;;;;;;2.75;2.75;;;;;14.61;44.50;97865.38;4922904;28;102321;-85
2021/12/03 10:29:25;;;;;;;;;2.50;2.50;;;;;14.70;44.50;97870.19;4909472;28;103018;-86
2021/12/03 10:40:03;;;;;;;;;2.25;2.25;;;;;14.73;44.08;97858.81;4900196;28;102529;-85
2021/12/03 10:42:40;;;;;;;;;2.50;2.50;;;;;14.78;44.40;97868.94;4924534;28;102489;-85
2021/12/03 10:45:36;;;;;;;;;3.00;3.00;;;;;14.79;44.26;97867.88;4916624;28;104215;-85
2021/12/03 11:06:41;;;;;;;;;2.00;1.25;;;;;14.94;44.23;97859.16;4904631;28;104339;-85
2021/12/03 11:15:09;;;;;;;;;1.75;1.75;;;;;14.98;44.56;97849.44;4894325;28;103699;-85
2021/12/03 12:05:51;;;;;;;;;2.00;2.00;;;;;15.09;43.82;97841.16;4906177;28;103539;-86
2021/12/03 14:03:51;;;;;;;;;2.25;2.00;;;;;15.44;43.04;97910.91;4914347;28;108631;-85
2021/12/03 14:43:45;;;;;;;;;4.75;3.00;;;;;15.32;41.93;97956.44;4886662;28;102620;-84
2021/12/03 14:46:42;;;;;;;;;4.00;3.00;;;;;15.30;42.50;97955.91;4889651;28;104699;-85
2021/12/03 14:49:25;;;;;;;;;3.00;3.00;;;;;15.28;42.57;97953.41;4882745;28;102687;-85
2021/12/03 14:54:29;;;;;;;;;6.75;5.00;;;;;15.25;42.29;97959.34;4875266;28;102639;-85
2021/12/03 14:57:52;;;;;;;;;6.50;5.00;;;;;15.22;42.37;97957.09;4892159;28;109205;-85
2021/12/03 15:00:18;;;;;;;;;8.50;6.00;;;;;15.21;42.50;97962.81;4880884;28;102480;-85
2021/12/03 15:03:00;;;;;;;;;5.50;5.50;;;;;15.21;42.42;97966.38;4884067;28;102674;-84
2021/12/03 15:06:06;;;;;;;;;6.25;4.25;;;;;15.19;42.37;97960.34;4879480;28;103837;-85
2021/12/03 15:21:41;;;;;;;;;66.00;48.75;;;;;15.65;47.71;97970.13;4901437;28;104109;-89
2021/12/03 15:27:05;;;;;;;;;66.00;48.25;;;;;15.68;47.79;97958.72;4909208;28;102335;-88
2021/12/03 15:32:27;;;;;;;;;64.00;49.25;;;;;15.69;47.45;97974.00;4898102;28;104730;-90
2021/12/03 15:35:04;;;;;;;;;68.00;50.25;;;;;15.71;47.94;97960.13;4894153;28;102643;-90
2021/12/03 15:40:25;;;;;;;;;65.25;50.00;;;;;15.75;47.52;97974.91;4901430;28;104069;-88
2021/12/03 16:04:49;;;;;;;;;65.00;48.00;;;;;15.90;47.74;97992.31;4892862;28;102492;-88
2021/12/03 16:10:18;;;;;;;;;57.75;44.75;;;;;15.94;47.74;97995.38;4876771;28;105812;-90
2021/12/03 16:19:14;;;;;;;;;59.75;46.50;;;;;15.96;47.50;98010.41;4889256;28;102660;-83
2021/12/03 16:22:07;;;;;;;;;62.25;48.00;;;;;15.99;46.92;98007.16;4874680;28;103541;-81
2021/12/03 16:46:17;;;;;;;;;60.75;47.00;;;;;15.92;46.87;98041.97;4913520;28;104064;-83
2021/12/03 16:51:40;;;;;;;;;60.50;46.25;;;;;15.91;46.60;98039.47;4901400;28;102305;-82
2021/12/03 16:54:09;;;;;;;;;57.00;45.25;;;;;15.89;46.58;98031.56;4874924;28;107837;-82
2021/12/03 16:56:42;;;;;;;;;53.50;44.00;;;;;15.90;46.44;98046.00;4908075;28;104220;-82
2021/12/03 16:59:09;;;;;;;;;61.00;48.00;;;;;15.88;46.69;98040.81;4894935;28;102724;-83
2021/12/03 17:04:32;;;;;;;;;58.50;43.75;;;;;15.87;46.50;98049.25;4911488;28;102713;-82
2021/12/03 17:30:53;;;;;;;;;56.75;44.25;;;;;15.81;46.81;98061.94;4879333;28;102270;-82
2021/12/03 18:00:34;;;;;;;;;50.50;39.00;;;;;15.74;47.21;98072.22;4883565;28;104381;-82
2021/12/03 18:03:44;;;;;;;;;48.50;37.50;;;;;15.73;46.87;98061.53;4864906;28;102419;-83
2021/12/03 18:08:46;;;;;;;;;52.00;37.50;;;;;15.71;47.17;98066.44;4892440;28;102603;-82
2021/12/03 18:52:07;;;;;;;;;38.50;32.00;;;;;15.59;46.82;98050.13;4901226;28;102619;-82
2021/12/03 18:54:40;;;;;;;;;38.50;33.00;;;;;15.58;47.09;98038.41;4896597;28;108627;-82
2021/12/03 18:57:17;;;;;;;;;38.25;32.25;;;;;15.59;46.99;98050.13;4894898;28;105055;-82